createdAt,value
2019-03-06T00:02:46.715Z,10.17
2019-03-06T00:05:48.709Z,18.33
2019-03-06T00:08:50.677Z,18.63
2019-03-06T00:11:52.796Z,15.53
2019-03-06T00:14:54.798Z,14.20
2019-03-06T00:17:56.725Z,13.67
2019-03-06T00:20:58.673Z,12.60
2019-03-06T00:24:00.711Z,15.47
2019-03-06T00:27:02.750Z,14.60
2019-03-06T00:30:08.337Z,13.53
2019-03-06T00:33:10.399Z,14.23
2019-03-06T00:36:14.186Z,12.67
2019-03-06T00:39:16.190Z,13.33
2019-03-06T00:42:18.332Z,12.43
2019-03-06T00:45:20.271Z,13.50
2019-03-06T00:48:22.219Z,13.57
2019-03-06T00:51:24.137Z,18.43
2019-03-06T00:54:26.136Z,14.77
2019-03-06T00:57:28.048Z,17.87
2019-03-06T01:00:30.033Z,18.03
2019-03-06T01:03:31.947Z,17.97
2019-03-06T01:06:34.088Z,15.97
2019-03-06T01:09:36.029Z,14.70
2019-03-06T01:12:38.658Z,18.13
2019-03-06T01:15:40.602Z,18.13
2019-03-06T01:18:42.550Z,14.60
2019-03-06T01:21:44.835Z,19.53
2019-03-06T01:24:46.796Z,15.30
2019-03-06T01:27:48.753Z,18.03
2019-03-06T01:30:50.694Z,16.53
2019-03-06T01:33:54.487Z,19.00
2019-03-06T01:36:58.209Z,15.20
2019-03-06T01:40:01.998Z,19.70
2019-03-06T01:43:11.510Z,19.30
2019-03-06T01:46:13.969Z,19.23
2019-03-06T01:49:15.968Z,23.73
2019-03-06T01:52:17.975Z,17.87
2019-03-06T01:55:19.975Z,17.27
2019-03-06T01:58:21.989Z,17.90
2019-03-06T02:01:23.975Z,18.57
2019-03-06T02:04:26.535Z,16.70
2019-03-06T02:07:28.429Z,21.33
2019-03-06T02:10:31.469Z,19.63
2019-03-06T02:13:33.391Z,16.70
2019-03-06T02:16:35.349Z,19.73
2019-03-06T02:19:37.341Z,19.80
2019-03-06T02:22:39.604Z,14.63
2019-03-06T02:25:41.585Z,24.67
2019-03-06T02:28:43.506Z,15.60
2019-03-06T02:31:45.511Z,16.63
2019-03-06T02:34:47.444Z,17.53
2019-03-06T02:37:49.400Z,16.97
2019-03-06T02:40:51.317Z,20.87
2019-03-06T02:43:53.316Z,20.37
2019-03-06T02:46:57.394Z,18.80
2019-03-06T02:49:59.348Z,17.60
2019-03-06T02:53:01.277Z,19.23
2019-03-06T02:56:03.293Z,16.63
2019-03-06T02:59:07.150Z,15.33
2019-03-06T03:02:11.059Z,17.50
2019-03-06T03:05:17.586Z,18.17
2019-03-06T03:08:19.550Z,23.03
2019-03-06T03:11:21.585Z,18.73
2019-03-06T03:14:23.511Z,18.07
2019-03-06T03:17:25.410Z,19.27
2019-03-06T03:20:27.339Z,19.80
2019-03-06T03:23:29.399Z,18.33
2019-03-06T03:26:31.304Z,19.83
2019-03-06T03:29:33.310Z,20.63
2019-03-06T03:32:35.267Z,18.27
2019-03-06T03:35:37.223Z,17.77
2019-03-06T03:38:39.177Z,18.87
2019-03-06T03:41:41.216Z,20.70
2019-03-06T03:44:43.210Z,20.93
2019-03-06T03:47:45.269Z,17.23
2019-03-06T03:50:47.816Z,22.30
2019-03-06T03:53:49.773Z,18.00
2019-03-06T03:56:51.845Z,19.30
2019-03-06T03:59:55.784Z,20.73
2019-03-06T04:02:58.083Z,21.43
2019-03-06T04:06:00.105Z,25.53
2019-03-06T04:09:02.521Z,22.50
2019-03-06T04:12:06.333Z,20.10
2019-03-06T04:15:11.691Z,20.77
2019-03-06T04:18:13.873Z,17.33
2019-03-06T04:21:15.830Z,19.77
2019-03-06T04:24:17.828Z,20.60
2019-03-06T04:27:19.797Z,17.37
2019-03-06T04:30:21.800Z,22.37
2019-03-06T04:33:23.794Z,20.33
2019-03-06T04:36:25.764Z,22.03
2019-03-06T04:39:27.690Z,22.03
2019-03-06T04:42:29.619Z,23.33
2019-03-06T04:45:31.552Z,25.13
2019-03-06T04:48:33.565Z,25.77
2019-03-06T04:51:35.544Z,22.83
2019-03-06T04:54:37.542Z,29.73
2019-03-06T04:57:39.557Z,23.27
2019-03-06T05:00:41.509Z,28.37
2019-03-06T05:03:43.503Z,28.90
2019-03-06T05:06:45.452Z,24.47
2019-03-06T05:09:47.407Z,25.53
2019-03-06T05:12:49.301Z,28.30
2019-03-06T05:15:51.429Z,24.87
2019-03-06T05:18:55.229Z,23.67
2019-03-06T05:21:57.197Z,25.67
2019-03-06T05:24:59.220Z,24.27
2019-03-06T05:28:01.117Z,28.97
2019-03-06T05:31:03.035Z,26.20
2019-03-06T05:34:05.051Z,26.87
2019-03-06T05:37:41.478Z,24.77
2019-03-06T05:40:43.515Z,28.93
2019-03-06T05:43:45.461Z,26.57
2019-03-06T05:46:47.423Z,28.50
2019-03-06T05:49:49.468Z,26.53
2019-03-06T05:52:51.380Z,29.07
2019-03-06T05:55:53.336Z,31.17
2019-03-06T05:58:55.405Z,26.80
2019-03-06T06:01:57.328Z,26.80
2019-03-06T06:04:59.407Z,24.83
2019-03-06T06:08:01.415Z,24.73
2019-03-06T06:11:03.608Z,30.73
2019-03-06T06:14:05.567Z,27.93
2019-03-06T06:17:07.537Z,24.73
2019-03-06T06:20:11.697Z,27.13
2019-03-06T06:23:31.829Z,25.20
2019-03-06T06:26:33.876Z,23.73
2019-03-06T06:29:35.873Z,27.27
2019-03-06T06:32:37.866Z,28.87
2019-03-06T06:35:39.842Z,23.43
2019-03-06T06:38:43.077Z,27.13
2019-03-06T06:41:45.209Z,24.50
2019-03-06T06:44:47.174Z,26.50
2019-03-06T06:48:11.686Z,28.37
2019-03-06T06:51:27.122Z,26.60
2019-03-06T06:54:50.210Z,26.60
2019-03-06T06:58:14.242Z,28.73
2019-03-06T07:01:27.492Z,31.40
2019-03-06T07:04:46.733Z,26.80
2019-03-06T07:07:56.351Z,30.00
2019-03-06T07:11:00.197Z,26.93
2019-03-06T07:14:07.001Z,30.07
2019-03-06T07:17:10.837Z,33.03
2019-03-06T07:20:14.763Z,33.20
2019-03-06T07:23:18.605Z,29.73
2019-03-06T07:26:31.347Z,30.93
2019-03-06T07:29:38.951Z,25.40
2019-03-06T07:32:45.877Z,25.30
2019-03-06T07:36:10.625Z,28.17
2019-03-06T07:39:19.633Z,26.80
2019-03-06T07:42:32.531Z,24.57
2019-03-06T07:45:51.358Z,30.07
2019-03-06T07:48:55.616Z,25.27
2019-03-06T07:52:09.537Z,26.67
2019-03-06T07:55:22.136Z,23.20
2019-03-06T07:58:47.671Z,25.00
2019-03-06T08:01:53.413Z,27.67
2019-03-06T08:04:55.404Z,24.93
2019-03-06T08:07:57.328Z,25.03
2019-03-06T08:11:00.595Z,25.27
2019-03-06T08:14:07.329Z,25.80
2019-03-06T08:17:27.862Z,26.40
2019-03-06T08:20:48.494Z,23.57
2019-03-06T08:23:55.123Z,24.13
2019-03-06T08:26:57.124Z,23.87
2019-03-06T08:29:59.100Z,23.50
2019-03-06T08:33:00.998Z,23.67
2019-03-06T08:36:03.090Z,25.03
2019-03-06T08:39:16.957Z,20.77
2019-03-06T08:42:19.463Z,24.07
2019-03-06T08:45:23.200Z,23.97
2019-03-06T08:48:29.974Z,20.77
2019-03-06T08:51:33.750Z,25.27
2019-03-06T08:54:40.890Z,22.73
2019-03-06T08:58:00.982Z,25.90
2019-03-06T09:01:35.376Z,23.70
2019-03-06T09:04:43.038Z,21.63
2019-03-06T09:07:47.105Z,20.80
2019-03-06T09:10:51.935Z,20.27
2019-03-06T09:14:07.831Z,22.17
2019-03-06T09:17:26.860Z,20.87
2019-03-06T09:20:47.164Z,19.53
2019-03-06T09:23:50.921Z,20.27
2019-03-06T09:26:54.997Z,21.03
2019-03-06T09:30:01.798Z,20.97
2019-03-06T09:33:22.121Z,21.13
2019-03-06T09:36:32.238Z,20.53
2019-03-06T09:39:54.595Z,19.80
2019-03-06T09:43:04.015Z,21.70
2019-03-06T09:46:16.926Z,20.77
2019-03-06T09:49:26.808Z,18.90
2019-03-06T09:52:39.609Z,20.43
2019-03-06T09:55:46.372Z,21.57
2019-03-06T09:58:53.607Z,20.27
2019-03-06T10:02:06.859Z,23.23
2019-03-06T10:05:18.155Z,20.87
2019-03-06T10:08:27.774Z,32.40
2019-03-06T10:11:31.619Z,21.77
2019-03-06T10:14:47.443Z,21.70
2019-03-06T10:17:51.304Z,21.93
2019-03-06T10:20:53.323Z,19.93
2019-03-06T10:23:55.339Z,17.63
2019-03-06T10:26:57.474Z,21.03
2019-03-06T10:29:59.849Z,23.23
2019-03-06T10:33:01.791Z,20.57
2019-03-06T10:36:03.717Z,22.77
2019-03-06T10:39:06.013Z,18.90
2019-03-06T10:42:09.796Z,20.37
2019-03-06T10:48:27.794Z,16.60
2019-03-06T10:51:31.078Z,18.10
2019-03-06T10:54:33.379Z,23.23
2019-03-06T10:57:35.992Z,19.37
2019-03-06T11:00:50.615Z,18.80
2019-03-06T11:03:54.433Z,18.43
2019-03-06T11:06:56.544Z,21.07
2019-03-06T11:09:58.911Z,22.57
2019-03-06T11:13:02.972Z,24.23
2019-03-06T11:16:07.145Z,22.77
2019-03-06T11:19:09.325Z,23.00
2019-03-06T11:22:11.846Z,20.60
2019-03-06T11:25:16.671Z,16.77
2019-03-06T11:28:18.851Z,18.13
2019-03-06T11:31:20.893Z,18.27
2019-03-06T11:34:22.876Z,21.33
2019-03-06T11:37:25.808Z,17.93
2019-03-06T11:40:28.096Z,15.93
2019-03-06T11:43:33.259Z,17.87
2019-03-06T11:46:35.473Z,16.90
2019-03-06T11:49:37.389Z,15.27
2019-03-06T11:52:39.409Z,14.43
2019-03-06T11:55:41.570Z,15.20
2019-03-06T11:58:43.711Z,14.97
2019-03-06T12:01:48.295Z,16.37
2019-03-06T12:04:50.584Z,17.73
2019-03-06T12:07:52.586Z,17.40
2019-03-06T12:10:55.066Z,15.20
2019-03-06T12:13:57.344Z,17.10
2019-03-06T12:16:59.686Z,17.03
2019-03-06T12:20:08.299Z,17.10
2019-03-06T12:23:07.158Z,12.83
2019-03-06T12:26:09.231Z,15.73
2019-03-06T12:29:11.148Z,13.70
2019-03-06T12:32:13.308Z,16.37
2019-03-06T12:35:16.681Z,13.63
2019-03-06T12:38:20.135Z,17.60
2019-03-06T12:41:23.231Z,13.80
2019-03-06T12:44:25.247Z,13.57
2019-03-06T12:47:27.477Z,14.03
2019-03-06T12:50:39.492Z,13.63
2019-03-06T12:53:41.514Z,11.97
2019-03-06T12:56:43.595Z,14.43
2019-03-06T12:59:45.567Z,11.80
2019-03-06T13:02:47.947Z,14.07
2019-03-06T13:05:49.850Z,12.77
2019-03-06T13:08:51.883Z,12.83
2019-03-06T13:11:53.820Z,11.13
2019-03-06T13:14:56.301Z,11.83
2019-03-06T13:17:58.365Z,9.80
2019-03-06T13:21:00.366Z,13.23
2019-03-06T13:24:02.545Z,9.83
2019-03-06T13:27:05.951Z,9.67
2019-03-06T13:30:11.299Z,9.70
2019-03-06T13:33:31.820Z,10.67
2019-03-06T13:36:33.750Z,12.20
2019-03-06T13:39:35.771Z,14.77
2019-03-06T13:42:37.732Z,14.80
2019-03-06T13:45:39.946Z,10.27
2019-03-06T13:48:41.920Z,10.60
2019-03-06T13:51:43.912Z,8.37
2019-03-06T13:54:46.214Z,11.10
2019-03-06T13:57:48.373Z,7.83
2019-03-06T14:00:50.721Z,9.10
2019-03-06T14:03:53.252Z,10.00
2019-03-06T14:06:55.251Z,10.40
2019-03-06T14:09:57.479Z,9.33
2019-03-06T14:12:59.453Z,9.30
2019-03-06T14:16:01.511Z,7.00
2019-03-06T14:19:03.565Z,7.67
2019-03-06T14:22:05.574Z,11.93
2019-03-06T14:25:09.586Z,6.93
2019-03-06T14:28:12.033Z,7.67
2019-03-06T14:31:15.484Z,7.50
2019-03-06T14:34:17.526Z,7.37
2019-03-06T14:37:19.614Z,8.00
2019-03-06T14:40:30.811Z,9.20
2019-03-06T14:43:32.883Z,14.30
2019-03-06T14:46:34.780Z,7.20
2019-03-06T14:49:36.716Z,12.47
2019-03-06T14:52:38.648Z,9.57
2019-03-06T14:55:40.776Z,9.50
2019-03-06T14:58:42.732Z,14.43
2019-03-06T15:01:44.682Z,11.13
2019-03-06T15:04:46.691Z,9.63
2019-03-06T15:07:48.672Z,9.60
2019-03-06T15:10:50.993Z,12.60
2019-03-06T15:13:53.936Z,10.23
2019-03-06T15:16:55.875Z,10.23
2019-03-06T15:19:58.086Z,13.20
2019-03-06T15:23:00.058Z,11.53
2019-03-06T15:26:02.099Z,11.97
2019-03-06T15:29:04.209Z,12.93
2019-03-06T15:32:06.298Z,11.57
2019-03-06T15:35:10.600Z,12.87
2019-03-06T15:38:13.015Z,14.43
2019-03-06T15:41:15.066Z,15.50
2019-03-06T15:44:17.313Z,13.33
2019-03-06T15:47:19.757Z,15.50
2019-03-06T15:50:21.901Z,16.83
2019-03-06T15:53:25.018Z,15.83
2019-03-06T15:56:27.783Z,19.13
2019-03-06T15:59:29.736Z,14.27
2019-03-06T16:02:31.844Z,13.27
2019-03-06T16:05:34.970Z,16.67
2019-03-06T16:08:36.900Z,17.87
2019-03-06T16:11:39.315Z,22.67
2019-03-06T16:14:41.304Z,18.93
2019-03-06T16:17:43.430Z,30.50
2019-03-06T16:20:46.022Z,36.43
2019-03-06T16:23:48.164Z,27.90
2019-03-06T16:26:50.929Z,23.90
2019-03-06T16:29:52.894Z,18.10
2019-03-06T16:32:54.961Z,19.63
2019-03-06T16:35:57.055Z,19.83
2019-03-06T16:38:59.253Z,20.80
2019-03-06T16:42:01.158Z,19.40
2019-03-06T16:45:05.215Z,21.97
2019-03-06T16:48:07.282Z,27.50
2019-03-06T16:51:09.683Z,19.90
2019-03-06T16:54:11.844Z,24.73
2019-03-06T16:57:14.202Z,21.20
2019-03-06T17:00:29.346Z,50.03
2019-03-06T17:03:32.219Z,35.23
2019-03-06T17:06:34.211Z,27.63
2019-03-06T17:09:36.723Z,20.07
2019-03-06T17:12:38.855Z,23.97
2019-03-06T17:15:40.839Z,21.83
2019-03-06T17:18:44.220Z,19.10
2019-03-06T17:21:46.251Z,21.67
2019-03-06T17:24:48.254Z,22.30
2019-03-06T17:27:50.522Z,23.73
2019-03-06T17:30:52.464Z,24.43
2019-03-06T17:33:54.414Z,23.63
2019-03-06T17:36:57.460Z,26.23
2019-03-06T17:39:59.652Z,26.13
2019-03-06T17:43:01.854Z,30.00
2019-03-06T17:46:06.569Z,24.97
2019-03-06T17:49:10.763Z,28.07
2019-03-06T17:52:12.664Z,23.63
2019-03-06T17:55:17.355Z,22.83
2019-03-06T17:58:20.629Z,22.77
2019-03-06T18:01:22.702Z,30.50
2019-03-06T18:04:24.633Z,22.63
2019-03-06T18:07:26.579Z,21.03
2019-03-06T18:10:28.831Z,22.17
2019-03-06T18:13:32.070Z,22.17
2019-03-06T18:16:34.066Z,22.63
2019-03-06T18:19:37.955Z,23.77
2019-03-06T18:22:43.516Z,23.97
2019-03-06T18:25:46.251Z,30.83
2019-03-06T18:28:48.306Z,26.67
2019-03-06T18:31:50.283Z,34.27
2019-03-06T18:34:52.603Z,33.70
2019-03-06T18:37:55.902Z,33.93
2019-03-06T18:40:58.439Z,30.60
2019-03-06T18:44:03.120Z,36.93
2019-03-06T18:47:07.518Z,35.67
2019-03-06T18:50:12.320Z,36.37
2019-03-06T18:53:16.365Z,39.93
2019-03-06T18:56:22.248Z,31.47
2019-03-06T18:59:24.727Z,38.17
2019-03-06T19:02:26.783Z,33.47
2019-03-06T19:05:28.752Z,31.60
2019-03-06T19:08:31.616Z,33.33
2019-03-06T19:11:35.558Z,35.60
2019-03-06T19:14:39.901Z,35.00
2019-03-06T19:17:42.322Z,29.57
2019-03-06T19:20:44.421Z,28.17
2019-03-06T19:23:48.209Z,37.20
2019-03-06T19:26:52.846Z,46.10
2019-03-06T19:29:57.326Z,49.67
2019-03-06T19:32:59.676Z,35.67
2019-03-06T19:36:02.948Z,47.40
2019-03-06T19:39:06.678Z,48.77
2019-03-06T19:42:10.214Z,42.27
2019-03-06T19:45:14.889Z,41.67
2019-03-06T19:48:17.790Z,44.80
2019-03-06T19:51:22.564Z,37.53
2019-03-06T19:54:27.322Z,44.17
2019-03-06T19:57:33.078Z,33.63
2019-03-06T20:00:37.066Z,31.93
2019-03-06T20:03:39.892Z,29.07
2019-03-06T20:06:42.478Z,32.50
2019-03-06T20:09:47.527Z,27.07
2019-03-06T20:12:49.668Z,32.20
2019-03-06T20:15:52.171Z,27.03
2019-03-06T20:18:54.674Z,27.57
2019-03-06T20:21:56.772Z,27.40
2019-03-06T20:25:00.320Z,26.93
2019-03-06T20:28:02.630Z,30.13
2019-03-06T20:31:05.319Z,26.63
2019-03-06T20:34:10.643Z,28.17
2019-03-06T20:37:12.736Z,34.23
2019-03-06T20:40:14.799Z,31.33
2019-03-06T20:43:17.185Z,28.13
2019-03-06T20:46:22.212Z,30.33
2019-03-06T20:49:23.948Z,28.67
2019-03-06T20:52:27.154Z,24.13
2019-03-06T20:55:31.512Z,28.63
2019-03-06T20:58:37.448Z,21.47
2019-03-06T21:01:40.096Z,25.00
2019-03-06T21:04:42.155Z,27.70
2019-03-06T21:07:45.127Z,26.23
2019-03-06T21:10:48.123Z,24.77
2019-03-06T21:13:51.609Z,24.70
2019-03-06T21:16:55.045Z,34.13
2019-03-06T21:20:00.397Z,27.63
2019-03-06T21:23:02.414Z,27.53
2019-03-06T21:26:05.376Z,30.03
2019-03-06T21:29:07.462Z,30.80
2019-03-06T21:32:09.458Z,33.43
2019-03-06T21:35:12.788Z,31.77
2019-03-06T21:38:14.883Z,30.83
2019-03-06T21:41:17.369Z,29.80
2019-03-06T21:44:19.419Z,25.03
2019-03-06T21:47:24.333Z,27.23
2019-03-06T21:50:28.065Z,31.43
2019-03-06T21:53:30.064Z,19.87
2019-03-06T21:56:32.029Z,25.17
2019-03-06T21:59:34.064Z,31.33
2019-03-06T22:02:36.166Z,26.03
2019-03-06T22:05:38.157Z,27.13
2019-03-06T22:08:40.365Z,30.63
2019-03-06T22:11:43.536Z,30.23
2019-03-06T22:14:45.502Z,30.30
2019-03-06T22:17:47.952Z,27.70
2019-03-06T22:20:49.851Z,26.77
2019-03-06T22:23:51.833Z,28.80
2019-03-06T22:26:53.787Z,28.40
2019-03-06T22:29:55.793Z,24.47
2019-03-06T22:32:59.585Z,24.67
2019-03-06T22:36:01.736Z,27.53
2019-03-06T22:39:05.038Z,30.23
2019-03-06T22:42:08.986Z,26.67
2019-03-06T22:45:13.487Z,29.17
2019-03-06T22:48:15.430Z,26.67
2019-03-06T22:51:17.426Z,31.30
2019-03-06T22:54:19.402Z,27.63
2019-03-06T22:57:21.330Z,27.70
2019-03-06T23:00:29.760Z,25.17
2019-03-06T23:03:33.628Z,26.50
2019-03-06T23:06:35.829Z,25.90
2019-03-06T23:09:37.714Z,23.33
2019-03-06T23:12:39.665Z,25.27
2019-03-06T23:15:41.597Z,23.47
2019-03-06T23:18:43.792Z,23.13
2019-03-06T23:21:45.718Z,23.00
2019-03-06T23:24:48.757Z,25.57
2019-03-06T23:27:51.113Z,24.47
2019-03-06T23:30:53.093Z,23.83
2019-03-06T23:33:55.120Z,21.17
2019-03-06T23:36:57.151Z,27.33
2019-03-06T23:39:59.050Z,23.30
2019-03-06T23:43:01.107Z,27.47
2019-03-06T23:46:03.029Z,25.17
2019-03-06T23:49:05.035Z,27.90
2019-03-06T23:52:08.760Z,27.17
2019-03-06T23:55:12.434Z,29.60
2019-03-06T23:58:14.354Z,22.70
